sensor_id;sensor_type;location;lat;lon;timestamp;pressure;altitude;pressure_sealevel;temperature;humidity
60817;BME280;51921;51.518;-3.188;2024-01-06T00:00:25;100836.47;;;4.36;100.00
60817;BME280;51921;51.518;-3.188;2024-01-06T00:02:50;100840.74;;;2.25;100.00
60817;BME280;51921;51.518;-3.188;2024-01-06T00:05:16;100844.39;;;1.99;100.00
60817;BME280;51921;51.518;-3.188;2024-01-06T00:07:42;100846.42;;;2.03;100.00
60817;BME280;51921;51.518;-3.188;2024-01-06T00:10:08;100847.02;;;2.48;100.00
60817;BME280;51921;51.518;-3.188;2024-01-06T00:12:33;100848.24;;;3.63;100.00
60817;BME280;51921;51.518;-3.188;2024-01-06T00:14:58;100848.64;;;3.83;100.00
60817;BME280;51921;51.518;-3.188;2024-01-06T00:17:24;100848.66;;;3.94;100.00
60817;BME280;51921;51.518;-3.188;2024-01-06T00:19:50;100848.19;;;4.20;100.00
60817;BME280;51921;51.518;-3.188;2024-01-06T00:22:15;100848.22;;;4.22;100.00
60817;BME280;51921;51.518;-3.188;2024-01-06T00:24:41;100850.95;;;5.44;100.00
60817;BME280;51921;51.518;-3.188;2024-01-06T00:27:06;100852.51;;;4.18;100.00
60817;BME280;51921;51.518;-3.188;2024-01-06T00:29:33;100859.31;;;4.28;100.00
60817;BME280;51921;51.518;-3.188;2024-01-06T00:31:58;100863.62;;;3.77;100.00
60817;BME280;51921;51.518;-3.188;2024-01-06T00:34:23;100864.19;;;4.11;100.00
60817;BME280;51921;51.518;-3.188;2024-01-06T00:36:49;100864.18;;;4.02;100.00
60817;BME280;51921;51.518;-3.188;2024-01-06T00:39:14;100868.00;;;4.45;100.00
60817;BME280;51921;51.518;-3.188;2024-01-06T00:41:40;100868.71;;;3.98;100.00
60817;BME280;51921;51.518;-3.188;2024-01-06T00:44:06;100872.00;;;2.39;100.00
60817;BME280;51921;51.518;-3.188;2024-01-06T00:46:31;100872.66;;;3.25;100.00
60817;BME280;51921;51.518;-3.188;2024-01-06T00:48:56;100877.47;;;3.74;100.00
60817;BME280;51921;51.518;-3.188;2024-01-06T00:51:22;100878.38;;;4.29;100.00
60817;BME280;51921;51.518;-3.188;2024-01-06T00:53:48;100881.61;;;4.64;100.00
60817;BME280;51921;51.518;-3.188;2024-01-06T00:56:13;100883.71;;;4.24;100.00
60817;BME280;51921;51.518;-3.188;2024-01-06T00:58:38;100887.57;;;2.09;100.00
60817;BME280;51921;51.518;-3.188;2024-01-06T01:01:04;100887.31;;;3.60;100.00
60817;BME280;51921;51.518;-3.188;2024-01-06T01:03:30;100887.06;;;3.42;100.00
60817;BME280;51921;51.518;-3.188;2024-01-06T01:05:56;100884.26;;;2.84;100.00
60817;BME280;51921;51.518;-3.188;2024-01-06T01:08:21;100886.63;;;2.53;100.00
60817;BME280;51921;51.518;-3.188;2024-01-06T01:10:47;100891.39;;;3.91;100.00
60817;BME280;51921;51.518;-3.188;2024-01-06T01:13:12;100894.25;;;3.50;100.00
60817;BME280;51921;51.518;-3.188;2024-01-06T01:15:38;100896.48;;;3.35;100.00
60817;BME280;51921;51.518;-3.188;2024-01-06T01:18:04;100901.59;;;3.55;100.00
60817;BME280;51921;51.518;-3.188;2024-01-06T01:20:29;100905.17;;;3.89;100.00
60817;BME280;51921;51.518;-3.188;2024-01-06T01:22:55;100905.12;;;4.56;100.00
60817;BME280;51921;51.518;-3.188;2024-01-06T01:25:20;100906.58;;;4.04;100.00
60817;BME280;51921;51.518;-3.188;2024-01-06T01:27:46;100910.47;;;4.36;100.00
60817;BME280;51921;51.518;-3.188;2024-01-06T01:30:12;100913.73;;;3.74;100.00
60817;BME280;51921;51.518;-3.188;2024-01-06T01:32:37;100916.42;;;2.93;100.00
60817;BME280;51921;51.518;-3.188;2024-01-06T01:35:03;100914.43;;;3.17;100.00
60817;BME280;51921;51.518;-3.188;2024-01-06T01:37:28;100917.06;;;3.62;100.00
60817;BME280;51921;51.518;-3.188;2024-01-06T01:39:54;100916.15;;;2.90;100.00
60817;BME280;51921;51.518;-3.188;2024-01-06T01:42:19;100922.35;;;2.95;100.00
60817;BME280;51921;51.518;-3.188;2024-01-06T01:44:45;100922.56;;;3.66;100.00
60817;BME280;51921;51.518;-3.188;2024-01-06T01:47:11;100923.15;;;5.35;95.67
60817;BME280;51921;51.518;-3.188;2024-01-06T01:49:37;100929.13;;;4.81;99.85
60817;BME280;51921;51.518;-3.188;2024-01-06T01:52:02;100935.22;;;3.41;100.00
60817;BME280;51921;51.518;-3.188;2024-01-06T01:54:27;100936.50;;;3.17;100.00
60817;BME280;51921;51.518;-3.188;2024-01-06T01:56:53;100937.34;;;2.75;100.00
60817;BME280;51921;51.518;-3.188;2024-01-06T01:59:19;100937.08;;;3.34;100.00
60817;BME280;51921;51.518;-3.188;2024-01-06T02:01:44;100938.11;;;3.22;100.00
60817;BME280;51921;51.518;-3.188;2024-01-06T02:04:10;100942.40;;;2.92;100.00
60817;BME280;51921;51.518;-3.188;2024-01-06T02:06:36;100938.77;;;3.52;100.00
60817;BME280;51921;51.518;-3.188;2024-01-06T02:09:01;100947.60;;;2.57;100.00
60817;BME280;51921;51.518;-3.188;2024-01-06T02:11:27;100950.93;;;3.51;100.00
60817;BME280;51921;51.518;-3.188;2024-01-06T02:13:53;100956.41;;;3.00;100.00
60817;BME280;51921;51.518;-3.188;2024-01-06T02:16:18;100958.15;;;2.77;100.00
60817;BME280;51921;51.518;-3.188;2024-01-06T02:18:44;100967.39;;;2.99;100.00
60817;BME280;51921;51.518;-3.188;2024-01-06T02:21:09;100968.94;;;3.18;100.00
60817;BME280;51921;51.518;-3.188;2024-01-06T02:23:36;100971.92;;;3.54;100.00
60817;BME280;51921;51.518;-3.188;2024-01-06T02:26:01;100974.17;;;3.74;100.00
60817;BME280;51921;51.518;-3.188;2024-01-06T02:28:26;100978.88;;;2.78;100.00
60817;BME280;51921;51.518;-3.188;2024-01-06T02:30:52;100979.09;;;2.90;100.00
60817;BME280;51921;51.518;-3.188;2024-01-06T02:33:17;100980.17;;;3.28;100.00
60817;BME280;51921;51.518;-3.188;2024-01-06T02:35:43;100981.81;;;2.95;100.00
60817;BME280;51921;51.518;-3.188;2024-01-06T02:38:09;100991.53;;;2.48;100.00
60817;BME280;51921;51.518;-3.188;2024-01-06T02:40:34;100991.44;;;3.39;100.00
60817;BME280;51921;51.518;-3.188;2024-01-06T02:43:00;100990.90;;;2.91;100.00
60817;BME280;51921;51.518;-3.188;2024-01-06T02:45:25;100988.43;;;3.59;100.00
60817;BME280;51921;51.518;-3.188;2024-01-06T02:47:51;100991.62;;;3.61;100.00
60817;BME280;51921;51.518;-3.188;2024-01-06T02:50:17;100997.80;;;3.92;100.00
60817;BME280;51921;51.518;-3.188;2024-01-06T02:52:43;100999.74;;;3.34;100.00
60817;BME280;51921;51.518;-3.188;2024-01-06T02:55:08;101002.43;;;3.77;100.00
60817;BME280;51921;51.518;-3.188;2024-01-06T02:57:34;101004.53;;;3.21;100.00
60817;BME280;51921;51.518;-3.188;2024-01-06T02:59:59;101005.16;;;2.98;100.00
60817;BME280;51921;51.518;-3.188;2024-01-06T03:02:25;101004.18;;;2.88;100.00
60817;BME280;51921;51.518;-3.188;2024-01-06T03:04:50;101004.67;;;3.34;100.00
60817;BME280;51921;51.518;-3.188;2024-01-06T03:07:16;101004.87;;;3.23;100.00
60817;BME280;51921;51.518;-3.188;2024-01-06T03:09:42;101004.10;;;2.76;100.00
60817;BME280;51921;51.518;-3.188;2024-01-06T03:12:07;101003.41;;;2.77;100.00
60817;BME280;51921;51.518;-3.188;2024-01-06T03:14:34;101002.42;;;3.59;100.00
60817;BME280;51921;51.518;-3.188;2024-01-06T03:16:58;101004.00;;;3.09;100.00
60817;BME280;51921;51.518;-3.188;2024-01-06T03:19:24;101008.56;;;4.17;100.00
60817;BME280;51921;51.518;-3.188;2024-01-06T03:21:49;101014.07;;;3.71;99.18
60817;BME280;51921;51.518;-3.188;2024-01-06T03:24:15;101020.85;;;3.19;100.00
60817;BME280;51921;51.518;-3.188;2024-01-06T03:26:41;101026.22;;;3.16;100.00
60817;BME280;51921;51.518;-3.188;2024-01-06T03:29:06;101029.07;;;2.53;100.00
60817;BME280;51921;51.518;-3.188;2024-01-06T03:31:32;101030.43;;;2.65;100.00
60817;BME280;51921;51.518;-3.188;2024-01-06T03:33:58;101031.05;;;0.61;100.00
60817;BME280;51921;51.518;-3.188;2024-01-06T03:36:23;101031.42;;;1.67;100.00
60817;BME280;51921;51.518;-3.188;2024-01-06T03:38:49;101034.46;;;3.27;100.00
60817;BME280;51921;51.518;-3.188;2024-01-06T03:41:14;101034.49;;;3.92;100.00
60817;BME280;51921;51.518;-3.188;2024-01-06T03:43:40;101041.28;;;2.46;100.00
60817;BME280;51921;51.518;-3.188;2024-01-06T03:46:06;101043.76;;;3.07;100.00
60817;BME280;51921;51.518;-3.188;2024-01-06T03:48:31;101047.50;;;2.97;100.00
60817;BME280;51921;51.518;-3.188;2024-01-06T03:50:58;101050.43;;;2.56;100.00
60817;BME280;51921;51.518;-3.188;2024-01-06T03:53:23;101054.84;;;3.50;100.00
60817;BME280;51921;51.518;-3.188;2024-01-06T03:55:48;101055.83;;;3.18;100.00
60817;BME280;51921;51.518;-3.188;2024-01-06T03:58:14;101053.89;;;2.55;100.00
60817;BME280;51921;51.518;-3.188;2024-01-06T04:00:39;101054.11;;;3.79;100.00
60817;BME280;51921;51.518;-3.188;2024-01-06T04:03:05;101052.65;;;3.12;100.00
60817;BME280;51921;51.518;-3.188;2024-01-06T04:05:31;101055.38;;;3.19;100.00
60817;BME280;51921;51.518;-3.188;2024-01-06T04:07:57;101056.59;;;2.69;100.00
60817;BME280;51921;51.518;-3.188;2024-01-06T04:10:22;101056.98;;;3.85;100.00
60817;BME280;51921;51.518;-3.188;2024-01-06T04:12:48;101058.25;;;3.67;100.00
60817;BME280;51921;51.518;-3.188;2024-01-06T04:15:13;101060.70;;;3.54;100.00
60817;BME280;51921;51.518;-3.188;2024-01-06T04:17:39;101061.23;;;4.05;99.00
60817;BME280;51921;51.518;-3.188;2024-01-06T04:20:05;101064.24;;;2.31;100.00
60817;BME280;51921;51.518;-3.188;2024-01-06T04:22:30;101066.74;;;1.53;100.00
60817;BME280;51921;51.518;-3.188;2024-01-06T04:24:56;101069.44;;;0.99;100.00
60817;BME280;51921;51.518;-3.188;2024-01-06T04:27:21;101075.43;;;1.60;100.00
60817;BME280;51921;51.518;-3.188;2024-01-06T04:29:47;101079.74;;;1.83;100.00
60817;BME280;51921;51.518;-3.188;2024-01-06T04:32:13;101080.84;;;2.28;100.00
60817;BME280;51921;51.518;-3.188;2024-01-06T04:34:38;101083.32;;;3.10;100.00
60817;BME280;51921;51.518;-3.188;2024-01-06T04:37:04;101082.48;;;2.42;100.00
60817;BME280;51921;51.518;-3.188;2024-01-06T04:39:30;101094.11;;;2.92;100.00
60817;BME280;51921;51.518;-3.188;2024-01-06T04:41:55;101092.37;;;2.85;100.00
60817;BME280;51921;51.518;-3.188;2024-01-06T04:44:21;101094.12;;;3.09;100.00
60817;BME280;51921;51.518;-3.188;2024-01-06T04:46:47;101099.51;;;2.85;100.00
60817;BME280;51921;51.518;-3.188;2024-01-06T04:49:12;101096.27;;;3.85;100.00
60817;BME280;51921;51.518;-3.188;2024-01-06T04:51:38;101102.83;;;3.24;100.00
60817;BME280;51921;51.518;-3.188;2024-01-06T04:54:04;101107.41;;;2.39;100.00
60817;BME280;51921;51.518;-3.188;2024-01-06T04:56:29;101109.56;;;3.49;100.00
60817;BME280;51921;51.518;-3.188;2024-01-06T04:58:55;101106.48;;;2.06;100.00
60817;BME280;51921;51.518;-3.188;2024-01-06T05:01:20;101110.98;;;2.30;100.00
60817;BME280;51921;51.518;-3.188;2024-01-06T05:03:46;101115.30;;;2.58;100.00
60817;BME280;51921;51.518;-3.188;2024-01-06T05:06:12;101118.57;;;2.86;100.00
60817;BME280;51921;51.518;-3.188;2024-01-06T05:08:36;101122.94;;;3.35;100.00
60817;BME280;51921;51.518;-3.188;2024-01-06T05:11:02;101128.42;;;2.73;100.00
60817;BME280;51921;51.518;-3.188;2024-01-06T05:13:28;101126.37;;;2.91;100.00
60817;BME280;51921;51.518;-3.188;2024-01-06T05:15:53;101129.74;;;2.37;100.00
60817;BME280;51921;51.518;-3.188;2024-01-06T05:18:19;101128.50;;;2.01;100.00
60817;BME280;51921;51.518;-3.188;2024-01-06T05:20:44;101133.11;;;1.51;100.00
60817;BME280;51921;51.518;-3.188;2024-01-06T05:23:10;101135.00;;;1.99;100.00
60817;BME280;51921;51.518;-3.188;2024-01-06T05:25:35;101141.88;;;1.60;100.00
60817;BME280;51921;51.518;-3.188;2024-01-06T05:28:01;101139.32;;;1.54;100.00
60817;BME280;51921;51.518;-3.188;2024-01-06T05:30:27;101146.93;;;0.67;100.00
60817;BME280;51921;51.518;-3.188;2024-01-06T05:32:52;101142.94;;;1.97;100.00
60817;BME280;51921;51.518;-3.188;2024-01-06T05:35:18;101151.21;;;3.01;100.00
60817;BME280;51921;51.518;-3.188;2024-01-06T05:37:44;101154.51;;;2.63;100.00
60817;BME280;51921;51.518;-3.188;2024-01-06T05:40:10;101151.30;;;2.53;100.00
60817;BME280;51921;51.518;-3.188;2024-01-06T05:42:35;101151.93;;;2.04;100.00
60817;BME280;51921;51.518;-3.188;2024-01-06T05:45:01;101153.80;;;2.23;100.00
60817;BME280;51921;51.518;-3.188;2024-01-06T05:47:26;101153.57;;;1.31;100.00
60817;BME280;51921;51.518;-3.188;2024-01-06T05:49:53;101156.13;;;1.26;100.00
60817;BME280;51921;51.518;-3.188;2024-01-06T05:52:17;101160.00;;;2.15;100.00
60817;BME280;51921;51.518;-3.188;2024-01-06T05:54:43;101158.93;;;2.09;100.00
60817;BME280;51921;51.518;-3.188;2024-01-06T05:57:08;101166.45;;;1.06;100.00
60817;BME280;51921;51.518;-3.188;2024-01-06T05:59:34;101169.23;;;1.66;100.00
60817;BME280;51921;51.518;-3.188;2024-01-06T06:02:00;101170.86;;;2.06;100.00
60817;BME280;51921;51.518;-3.188;2024-01-06T06:04:25;101178.20;;;2.47;100.00
60817;BME280;51921;51.518;-3.188;2024-01-06T06:06:51;101178.62;;;1.91;100.00
60817;BME280;51921;51.518;-3.188;2024-01-06T06:09:16;101174.33;;;2.32;100.00
60817;BME280;51921;51.518;-3.188;2024-01-06T06:11:42;101180.80;;;3.17;100.00
60817;BME280;51921;51.518;-3.188;2024-01-06T06:14:08;101186.17;;;3.19;100.00
60817;BME280;51921;51.518;-3.188;2024-01-06T06:16:33;101191.34;;;1.91;100.00
60817;BME280;51921;51.518;-3.188;2024-01-06T06:18:59;101196.36;;;2.55;100.00
60817;BME280;51921;51.518;-3.188;2024-01-06T06:21:24;101203.08;;;2.96;100.00
60817;BME280;51921;51.518;-3.188;2024-01-06T06:23:50;101210.11;;;2.30;100.00
60817;BME280;51921;51.518;-3.188;2024-01-06T06:26:16;101211.23;;;3.34;100.00
60817;BME280;51921;51.518;-3.188;2024-01-06T06:28:41;101210.81;;;3.27;100.00
60817;BME280;51921;51.518;-3.188;2024-01-06T06:31:07;101217.29;;;3.33;100.00
60817;BME280;51921;51.518;-3.188;2024-01-06T06:33:33;101214.83;;;2.36;100.00
60817;BME280;51921;51.518;-3.188;2024-01-06T06:35:58;101217.05;;;2.51;100.00
60817;BME280;51921;51.518;-3.188;2024-01-06T06:38:25;101220.87;;;2.16;100.00
60817;BME280;51921;51.518;-3.188;2024-01-06T06:40:49;101227.94;;;2.71;100.00
60817;BME280;51921;51.518;-3.188;2024-01-06T06:43:15;101235.54;;;3.04;100.00
60817;BME280;51921;51.518;-3.188;2024-01-06T06:45:41;101239.90;;;3.50;100.00
60817;BME280;51921;51.518;-3.188;2024-01-06T06:48:07;101243.61;;;2.90;100.00
60817;BME280;51921;51.518;-3.188;2024-01-06T06:50:32;101242.33;;;3.04;100.00
60817;BME280;51921;51.518;-3.188;2024-01-06T06:52:58;101249.22;;;3.07;100.00
60817;BME280;51921;51.518;-3.188;2024-01-06T06:55:23;101255.56;;;3.19;100.00
60817;BME280;51921;51.518;-3.188;2024-01-06T06:57:49;101259.51;;;2.27;100.00
60817;BME280;51921;51.518;-3.188;2024-01-06T07:00:15;101263.11;;;3.20;100.00
60817;BME280;51921;51.518;-3.188;2024-01-06T07:02:40;101265.74;;;2.70;100.00
60817;BME280;51921;51.518;-3.188;2024-01-06T07:05:06;101263.61;;;3.15;100.00
60817;BME280;51921;51.518;-3.188;2024-01-06T07:07:31;101266.40;;;2.83;100.00
60817;BME280;51921;51.518;-3.188;2024-01-06T07:09:57;101271.56;;;2.96;100.00
60817;BME280;51921;51.518;-3.188;2024-01-06T07:12:22;101270.90;;;2.86;100.00
60817;BME280;51921;51.518;-3.188;2024-01-06T07:14:48;101279.68;;;4.25;100.00
60817;BME280;51921;51.518;-3.188;2024-01-06T07:17:14;101282.55;;;3.81;100.00
60817;BME280;51921;51.518;-3.188;2024-01-06T07:19:40;101285.70;;;3.53;100.00
60817;BME280;51921;51.518;-3.188;2024-01-06T07:22:05;101288.43;;;2.01;100.00
60817;BME280;51921;51.518;-3.188;2024-01-06T07:24:30;101287.85;;;1.99;100.00
60817;BME280;51921;51.518;-3.188;2024-01-06T07:26:56;101292.26;;;1.24;100.00
60817;BME280;51921;51.518;-3.188;2024-01-06T07:29:22;101295.27;;;2.97;100.00
60817;BME280;51921;51.518;-3.188;2024-01-06T07:31:47;101298.53;;;1.37;100.00
60817;BME280;51921;51.518;-3.188;2024-01-06T07:34:13;101301.86;;;2.45;100.00
60817;BME280;51921;51.518;-3.188;2024-01-06T07:36:39;101307.07;;;2.69;100.00
60817;BME280;51921;51.518;-3.188;2024-01-06T07:39:04;101311.90;;;0.56;100.00
60817;BME280;51921;51.518;-3.188;2024-01-06T07:41:29;101317.38;;;-0.03;100.00
60817;BME280;51921;51.518;-3.188;2024-01-06T07:43:55;101316.98;;;2.04;100.00
60817;BME280;51921;51.518;-3.188;2024-01-06T07:46:21;101316.23;;;2.51;100.00
60817;BME280;51921;51.518;-3.188;2024-01-06T07:48:46;101318.69;;;-1.13;100.00
60817;BME280;51921;51.518;-3.188;2024-01-06T07:51:12;101330.01;;;-0.73;100.00
60817;BME280;51921;51.518;-3.188;2024-01-06T07:53:38;101338.41;;;-0.52;100.00
60817;BME280;51921;51.518;-3.188;2024-01-06T07:56:04;101345.86;;;0.29;100.00
60817;BME280;51921;51.518;-3.188;2024-01-06T07:58:29;101347.89;;;1.12;100.00
60817;BME280;51921;51.518;-3.188;2024-01-06T08:00:55;101347.76;;;2.46;100.00
60817;BME280;51921;51.518;-3.188;2024-01-06T08:03:20;101350.12;;;2.88;100.00
60817;BME280;51921;51.518;-3.188;2024-01-06T08:05:45;101353.11;;;3.10;100.00
60817;BME280;51921;51.518;-3.188;2024-01-06T08:08:11;101360.46;;;1.97;100.00
60817;BME280;51921;51.518;-3.188;2024-01-06T08:10:36;101362.88;;;1.42;100.00
60817;BME280;51921;51.518;-3.188;2024-01-06T08:13:02;101368.49;;;2.04;100.00
60817;BME280;51921;51.518;-3.188;2024-01-06T08:15:28;101368.00;;;2.59;100.00
60817;BME280;51921;51.518;-3.188;2024-01-06T08:17:53;101368.60;;;2.71;100.00
60817;BME280;51921;51.518;-3.188;2024-01-06T08:20:19;101372.42;;;2.68;100.00
60817;BME280;51921;51.518;-3.188;2024-01-06T08:22:45;101375.52;;;3.01;100.00
60817;BME280;51921;51.518;-3.188;2024-01-06T08:25:10;101381.39;;;2.07;100.00
60817;BME280;51921;51.518;-3.188;2024-01-06T08:27:36;101381.46;;;1.66;100.00
60817;BME280;51921;51.518;-3.188;2024-01-06T08:30:02;101383.68;;;2.22;100.00
60817;BME280;51921;51.518;-3.188;2024-01-06T08:32:27;101385.96;;;2.73;100.00
60817;BME280;51921;51.518;-3.188;2024-01-06T08:34:52;101382.04;;;2.16;100.00
60817;BME280;51921;51.518;-3.188;2024-01-06T08:37:18;101384.75;;;3.41;100.00
60817;BME280;51921;51.518;-3.188;2024-01-06T08:39:44;101389.22;;;2.51;100.00
60817;BME280;51921;51.518;-3.188;2024-01-06T08:42:09;101395.11;;;1.65;100.00
60817;BME280;51921;51.518;-3.188;2024-01-06T08:44:35;101397.23;;;2.02;100.00
60817;BME280;51921;51.518;-3.188;2024-01-06T08:47:00;101399.95;;;2.00;100.00
60817;BME280;51921;51.518;-3.188;2024-01-06T08:49:26;101398.91;;;2.26;100.00
60817;BME280;51921;51.518;-3.188;2024-01-06T08:51:52;101400.07;;;2.62;100.00
60817;BME280;51921;51.518;-3.188;2024-01-06T08:54:17;101405.46;;;2.61;100.00
60817;BME280;51921;51.518;-3.188;2024-01-06T08:56:43;101408.48;;;2.94;100.00
60817;BME280;51921;51.518;-3.188;2024-01-06T08:59:08;101411.08;;;3.19;100.00
60817;BME280;51921;51.518;-3.188;2024-01-06T09:01:33;101418.27;;;3.63;100.00
60817;BME280;51921;51.518;-3.188;2024-01-06T09:03:59;101421.95;;;3.07;100.00
60817;BME280;51921;51.518;-3.188;2024-01-06T09:06:24;101423.65;;;2.41;100.00
60817;BME280;51921;51.518;-3.188;2024-01-06T09:08:50;101428.81;;;3.25;100.00
60817;BME280;51921;51.518;-3.188;2024-01-06T09:11:15;101431.43;;;2.38;100.00
60817;BME280;51921;51.518;-3.188;2024-01-06T09:13:41;101431.95;;;2.34;100.00
60817;BME280;51921;51.518;-3.188;2024-01-06T09:16:06;101438.72;;;2.33;100.00
60817;BME280;51921;51.518;-3.188;2024-01-06T09:18:31;101445.82;;;2.75;100.00
60817;BME280;51921;51.518;-3.188;2024-01-06T09:20:57;101448.81;;;2.21;100.00
60817;BME280;51921;51.518;-3.188;2024-01-06T09:23:22;101452.89;;;2.78;100.00
60817;BME280;51921;51.518;-3.188;2024-01-06T09:25:48;101455.61;;;3.06;100.00
60817;BME280;51921;51.518;-3.188;2024-01-06T09:28:13;101459.91;;;2.54;100.00
60817;BME280;51921;51.518;-3.188;2024-01-06T09:30:39;101471.84;;;2.49;100.00
60817;BME280;51921;51.518;-3.188;2024-01-06T09:33:05;101471.67;;;3.07;100.00
60817;BME280;51921;51.518;-3.188;2024-01-06T09:35:30;101476.97;;;2.54;100.00
60817;BME280;51921;51.518;-3.188;2024-01-06T09:37:56;101477.15;;;3.47;100.00
60817;BME280;51921;51.518;-3.188;2024-01-06T09:40:23;101477.24;;;3.66;100.00
60817;BME280;51921;51.518;-3.188;2024-01-06T09:42:47;101479.36;;;4.39;100.00
60817;BME280;51921;51.518;-3.188;2024-01-06T09:45:13;101480.06;;;4.05;100.00
60817;BME280;51921;51.518;-3.188;2024-01-06T09:47:40;101484.74;;;3.09;100.00
60817;BME280;51921;51.518;-3.188;2024-01-06T09:50:09;101487.18;;;3.40;100.00
60817;BME280;51921;51.518;-3.188;2024-01-06T09:52:32;101487.74;;;2.83;100.00
60817;BME280;51921;51.518;-3.188;2024-01-06T09:54:55;101489.08;;;2.52;100.00
60817;BME280;51921;51.518;-3.188;2024-01-06T09:57:21;101494.56;;;2.11;100.00
60817;BME280;51921;51.518;-3.188;2024-01-06T09:59:47;101497.50;;;2.09;100.00
60817;BME280;51921;51.518;-3.188;2024-01-06T10:02:14;101494.23;;;1.89;100.00
60817;BME280;51921;51.518;-3.188;2024-01-06T10:04:37;101501.21;;;2.11;100.00
60817;BME280;51921;51.518;-3.188;2024-01-06T10:07:03;101504.16;;;2.02;100.00
60817;BME280;51921;51.518;-3.188;2024-01-06T10:09:29;101503.88;;;2.34;100.00
60817;BME280;51921;51.518;-3.188;2024-01-06T10:11:55;101503.43;;;2.78;100.00
60817;BME280;51921;51.518;-3.188;2024-01-06T10:14:20;101505.64;;;2.67;100.00
60817;BME280;51921;51.518;-3.188;2024-01-06T10:16:47;101505.00;;;3.27;100.00
60817;BME280;51921;51.518;-3.188;2024-01-06T10:19:11;101510.44;;;2.94;100.00
60817;BME280;51921;51.518;-3.188;2024-01-06T10:21:37;101511.63;;;3.34;100.00
60817;BME280;51921;51.518;-3.188;2024-01-06T10:24:02;101512.69;;;3.88;100.00
60817;BME280;51921;51.518;-3.188;2024-01-06T10:26:29;101515.46;;;4.53;100.00
60817;BME280;51921;51.518;-3.188;2024-01-06T10:28:53;101520.86;;;3.81;100.00
60817;BME280;51921;51.518;-3.188;2024-01-06T10:31:19;101524.06;;;3.82;100.00
60817;BME280;51921;51.518;-3.188;2024-01-06T10:33:45;101522.32;;;4.70;100.00
60817;BME280;51921;51.518;-3.188;2024-01-06T10:36:10;101520.96;;;4.11;100.00
60817;BME280;51921;51.518;-3.188;2024-01-06T10:38:36;101524.33;;;4.78;100.00
60817;BME280;51921;51.518;-3.188;2024-01-06T10:41:03;101528.96;;;4.08;100.00
60817;BME280;51921;51.518;-3.188;2024-01-06T10:43:28;101530.12;;;3.43;100.00
60817;BME280;51921;51.518;-3.188;2024-01-06T10:45:53;101530.84;;;4.71;100.00
60817;BME280;51921;51.518;-3.188;2024-01-06T10:48:19;101530.51;;;5.13;100.00
60817;BME280;51921;51.518;-3.188;2024-01-06T10:50:44;101536.19;;;4.70;100.00
60817;BME280;51921;51.518;-3.188;2024-01-06T10:53:10;101533.79;;;4.86;100.00
60817;BME280;51921;51.518;-3.188;2024-01-06T10:55:35;101533.83;;;4.30;100.00
60817;BME280;51921;51.518;-3.188;2024-01-06T10:58:01;101530.23;;;5.10;100.00
60817;BME280;51921;51.518;-3.188;2024-01-06T11:00:26;101530.14;;;4.88;100.00
60817;BME280;51921;51.518;-3.188;2024-01-06T11:02:53;101529.66;;;4.85;100.00
60817;BME280;51921;51.518;-3.188;2024-01-06T11:05:17;101528.46;;;5.04;100.00
60817;BME280;51921;51.518;-3.188;2024-01-06T11:07:43;101529.38;;;5.49;100.00
60817;BME280;51921;51.518;-3.188;2024-01-06T11:10:12;101525.93;;;5.57;100.00
60817;BME280;51921;51.518;-3.188;2024-01-06T11:12:34;101527.59;;;6.04;100.00
60817;BME280;51921;51.518;-3.188;2024-01-06T11:15:00;101531.91;;;6.31;100.00
60817;BME280;51921;51.518;-3.188;2024-01-06T11:19:51;101534.59;;;6.49;100.00
60817;BME280;51921;51.518;-3.188;2024-01-06T11:22:21;101534.37;;;5.50;100.00
60817;BME280;51921;51.518;-3.188;2024-01-06T11:24:47;101539.77;;;5.45;100.00
60817;BME280;51921;51.518;-3.188;2024-01-06T11:27:07;101537.34;;;5.05;100.00
60817;BME280;51921;51.518;-3.188;2024-01-06T11:29:33;101536.78;;;5.53;100.00
60817;BME280;51921;51.518;-3.188;2024-01-06T11:34:24;101533.25;;;4.87;100.00
60817;BME280;51921;51.518;-3.188;2024-01-06T11:36:50;101541.36;;;6.59;100.00
60817;BME280;51921;51.518;-3.188;2024-01-06T11:41:48;101541.56;;;5.91;100.00
60817;BME280;51921;51.518;-3.188;2024-01-06T11:44:06;101546.62;;;5.69;100.00
60817;BME280;51921;51.518;-3.188;2024-01-06T11:46:32;101544.49;;;5.86;100.00
60817;BME280;51921;51.518;-3.188;2024-01-06T11:48:58;101545.17;;;5.78;100.00
60817;BME280;51921;51.518;-3.188;2024-01-06T11:51:23;101547.29;;;6.97;99.81
60817;BME280;51921;51.518;-3.188;2024-01-06T11:53:49;101542.58;;;7.01;100.00
60817;BME280;51921;51.518;-3.188;2024-01-06T11:56:15;101547.79;;;6.11;100.00
60817;BME280;51921;51.518;-3.188;2024-01-06T11:58:40;101540.63;;;5.58;100.00
60817;BME280;51921;51.518;-3.188;2024-01-06T12:01:05;101540.64;;;5.53;100.00
60817;BME280;51921;51.518;-3.188;2024-01-06T12:03:31;101540.87;;;7.20;98.90
60817;BME280;51921;51.518;-3.188;2024-01-06T12:06:00;101537.61;;;7.51;96.85
60817;BME280;51921;51.518;-3.188;2024-01-06T12:08:22;101540.21;;;7.59;98.71
60817;BME280;51921;51.518;-3.188;2024-01-06T12:10:47;101536.03;;;6.99;94.61
60817;BME280;51921;51.518;-3.188;2024-01-06T12:13:14;101532.69;;;7.93;91.03
60817;BME280;51921;51.518;-3.188;2024-01-06T12:15:38;101535.19;;;7.74;96.30
60817;BME280;51921;51.518;-3.188;2024-01-06T12:18:05;101529.89;;;8.81;86.61
60817;BME280;51921;51.518;-3.188;2024-01-06T12:20:29;101537.64;;;6.90;91.68
60817;BME280;51921;51.518;-3.188;2024-01-06T12:22:55;101539.49;;;7.66;94.08
60817;BME280;51921;51.518;-3.188;2024-01-06T12:25:21;101536.96;;;8.17;93.21
60817;BME280;51921;51.518;-3.188;2024-01-06T12:27:49;101536.39;;;8.11;91.12
60817;BME280;51921;51.518;-3.188;2024-01-06T12:30:13;101534.93;;;8.79;88.89
60817;BME280;51921;51.518;-3.188;2024-01-06T12:32:38;101535.97;;;7.85;89.13
60817;BME280;51921;51.518;-3.188;2024-01-06T12:35:03;101537.72;;;7.69;90.19
60817;BME280;51921;51.518;-3.188;2024-01-06T12:37:28;101536.14;;;8.60;88.49